17°C Temp
8°C Dewpoint
% Humidity
Temperature
50 KM/H
31 MPH
27 KTS
210°
South South
West

Wind Speed
Partly Cloudy
Conditions
Pressure 996.92 (hPa) - 29.44 (in)
Visibility 6.2 (mi) - 10.0 (km)

Current Conditions
EFHK
Location 67(km)
Metar :EFHK 061150Z 21027KT 9999 VCSH FEW026 FEW030CB 17/08 Q0997 NOSIG
Mon 6th July 14:50 pm

Airport
  Metar Aviation API Data Provided by https://www.checkwx.com/ PHP scripts by weather34.com ©2020